Brio — CBBR — position and weather

sailwx.info

Track history (hours):
 
Tides and Currents Weather Stations Pressure Air Temp Water Temp Dewpoint Dewpoint Depression Visibility Wind Speed Wind Dir Waves Ship Positions

Brio

Last reported at 2018-Jun-19 19:13 UTC. Time now 2018-Jun-22 08:46 UTC.
Position S 33°01' W 071°49'.

Length 183 m; draft 8.5 m.

Type: Tanker. MMSI: 725001963.

Date/timePositionNaut miles runAvg speedWind from/ knotsBaromVisibWave heightAir tempDewpointWater temp
2018-Jun-19 19:13S 33°01' W 071°49'312.3
2018-Jun-19 18:58S 32°58' W 071°47'612.6
2018-Jun-19 18:29S 32°53' W 071°44'612.6
2018-Jun-19 18:00S 32°48' W 071°40'8 9.0
2018-Jun-19 17:08S 32°45' W 071°32'1 7.3
2018-Jun-19 17:00S 32°46' W 071°31'0 0.2
2018-Jun-19 15:04S 32°46' W 071°31'0 0.1
2018-Jun-19 14:58S 32°46' W 071°31'0 0.0
2018-Jun-19 12:46S 32°46' W 071°31'0 0.0
2018-Jun-19 11:49S 32°46' W 071°31'0 0.0
2018-Jun-19 11:28S 32°46' W 071°31'0 0.0
2018-Jun-19 09:25S 32°46' W 071°31'0 0.0
2018-Jun-19 06:46S 32°46' W 071°31'0 0.1
2018-Jun-19 06:28S 32°46' W 071°31'0 0.0
2018-Jun-19 05:46S 32°46' W 071°31'0 0.1
2018-Jun-19 05:28S 32°46' W 071°31'0 0.0
2018-Jun-19 04:34S 32°46' W 071°31'0 0.1
2018-Jun-19 04:28S 32°46' W 071°31'0 0.0
2018-Jun-19 03:31S 32°46' W 071°31'0 0.0
2018-Jun-19 03:28S 32°46' W 071°31'0 0.0
2018-Jun-19 02:46S 32°46' W 071°31'0 0.0
2018-Jun-19 02:28S 32°46' W 071°31'0 0.0
2018-Jun-18 18:13S 32°46' W 071°31'0 0.0
2018-Jun-18 17:55S 32°46' W 071°31'0 0.0
2018-Jun-18 17:28S 32°46' W 071°31'0 0.0
2018-Jun-18 16:58S 32°46' W 071°31'0 0.0
2018-Jun-18 12:16S 32°46' W 071°31'0 0.1
2018-Jun-18 11:58S 32°46' W 071°31'0 0.2
2018-Jun-18 11:25S 32°46' W 071°31'0 0.0
2018-Jun-18 10:58S 32°46' W 071°31'0 0.0
2018-Jun-18 10:28S 32°46' W 071°31'0 0.1
2018-Jun-18 09:55S 32°46' W 071°31'0 0.1
2018-Jun-18 09:19S 32°46' W 071°31'0 0.0
2018-Jun-18 05:52S 32°46' W 071°31'0 0.2
2018-Jun-18 05:16S 32°46' W 071°31'0 0.1
2018-Jun-18 04:58S 32°46' W 071°31'0 0.1
2018-Jun-18 04:28S 32°46' W 071°31'0 0.0
2018-Jun-18 03:58S 32°46' W 071°31'0 0.0
2018-Jun-18 03:28S 32°46' W 071°31'0 0.0
2018-Jun-18 03:01S 32°46' W 071°31'0 0.0
2018-Jun-18 02:31S 32°46' W 071°31'0 0.0
2018-Jun-18 02:01S 32°46' W 071°31'0 0.0
2018-Jun-18 01:30S 32°46' W 071°31'0 0.0
2018-Jun-18 01:01S 32°46' W 071°31'0 0.1
2018-Jun-18 00:30S 32°46' W 071°31'0 0.1
2018-Jun-18 00:00S 32°46' W 071°31'0 0.0
2018-Jun-17 22:58S 32°46' W 071°31'0 0.2
2018-Jun-17 22:30S 32°46' W 071°31'1 1.1
2018-Jun-17 21:56S 32°46' W 071°31'1 0.0
2018-Jun-16 16:35S 32°46' W 071°30'0 0.8
2018-Jun-16 16:29S 32°46' W 071°30'1 0.5
2018-Jun-16 15:10S 32°45' W 071°30'0 0.0
2018-Jun-16 14:46S 32°45' W 071°30'0 0.0
2018-Jun-16 14:22S 32°45' W 071°30'0 0.0
2018-Jun-16 13:49S 32°45' W 071°30'0 0.0
2018-Jun-16 13:22S 32°45' W 071°30'0 0.1
2018-Jun-16 12:55S 32°45' W 071°30'0 0.1
2018-Jun-16 12:13S 32°45' W 071°30'0 0.1
2018-Jun-16 11:58S 32°45' W 071°30'0 0.0
2018-Jun-16 08:55S 32°45' W 071°30'0 0.0
2018-Jun-16 08:25S 32°45' W 071°30'0 0.0
2018-Jun-16 07:34S 32°45' W 071°30'0 0.1
2018-Jun-16 07:28S 32°45' W 071°30'0 0.0
2018-Jun-16 06:58S 32°45' W 071°30'0 0.0
2018-Jun-16 06:28S 32°45' W 071°30'0 0.0
2018-Jun-16 05:40S 32°45' W 071°30'0 0.0
2018-Jun-15 21:52S 32°45' W 071°30'1 0.0
2018-Jun-14 20:00S 32°46' W 071°30'1 1.8
2018-Jun-14 19:17S 32°45' W 071°31'1 2.8
2018-Jun-14 18:46S 32°45' W 071°33'1 2.4
2018-Jun-14 18:26S 32°45' W 071°34'3 7.1
2018-Jun-14 18:00S 32°45' W 071°37'  
Track history (hours):
 
Tides and Currents Weather Stations Pressure Air Temp Water Temp Dewpoint Dewpoint Depression Visibility Wind Speed Wind Dir Waves Ship Positions

Brio

Last reported at 2018-Jun-19 19:13 UTC. Time now 2018-Jun-22 08:46 UTC.
Position S 33°01' W 071°49'.

Length 183 m; draft 8.5 m.

Type: Tanker. MMSI: 725001963.

Date/timePositionNaut miles runAvg speedWind from/ knotsBaromVisibWave heightAir tempDewpointWater temp
2018-Jun-19 19:13S 33°01' W 071°49'312.3
2018-Jun-19 18:58S 32°58' W 071°47'612.6
2018-Jun-19 18:29S 32°53' W 071°44'612.6
2018-Jun-19 18:00S 32°48' W 071°40'8 9.0
2018-Jun-19 17:08S 32°45' W 071°32'1 7.3
2018-Jun-19 17:00S 32°46' W 071°31'0 0.2
2018-Jun-19 15:04S 32°46' W 071°31'0 0.1
2018-Jun-19 14:58S 32°46' W 071°31'0 0.0
2018-Jun-19 12:46S 32°46' W 071°31'0 0.0
2018-Jun-19 11:49S 32°46' W 071°31'0 0.0
2018-Jun-19 11:28S 32°46' W 071°31'0 0.0
2018-Jun-19 09:25S 32°46' W 071°31'0 0.0
2018-Jun-19 06:46S 32°46' W 071°31'0 0.1
2018-Jun-19 06:28S 32°46' W 071°31'0 0.0
2018-Jun-19 05:46S 32°46' W 071°31'0 0.1
2018-Jun-19 05:28S 32°46' W 071°31'0 0.0
2018-Jun-19 04:34S 32°46' W 071°31'0 0.1
2018-Jun-19 04:28S 32°46' W 071°31'0 0.0
2018-Jun-19 03:31S 32°46' W 071°31'0 0.0
2018-Jun-19 03:28S 32°46' W 071°31'0 0.0
2018-Jun-19 02:46S 32°46' W 071°31'0 0.0
2018-Jun-19 02:28S 32°46' W 071°31'0 0.0
2018-Jun-18 18:13S 32°46' W 071°31'0 0.0
2018-Jun-18 17:55S 32°46' W 071°31'0 0.0
2018-Jun-18 17:28S 32°46' W 071°31'0 0.0
2018-Jun-18 16:58S 32°46' W 071°31'0 0.0
2018-Jun-18 12:16S 32°46' W 071°31'0 0.1
2018-Jun-18 11:58S 32°46' W 071°31'0 0.2
2018-Jun-18 11:25S 32°46' W 071°31'0 0.0
2018-Jun-18 10:58S 32°46' W 071°31'0 0.0
2018-Jun-18 10:28S 32°46' W 071°31'0 0.1
2018-Jun-18 09:55S 32°46' W 071°31'0 0.1
2018-Jun-18 09:19S 32°46' W 071°31'0 0.0
2018-Jun-18 05:52S 32°46' W 071°31'0 0.2
2018-Jun-18 05:16S 32°46' W 071°31'0 0.1
2018-Jun-18 04:58S 32°46' W 071°31'0 0.1
2018-Jun-18 04:28S 32°46' W 071°31'0 0.0
2018-Jun-18 03:58S 32°46' W 071°31'0 0.0
2018-Jun-18 03:28S 32°46' W 071°31'0 0.0
2018-Jun-18 03:01S 32°46' W 071°31'0 0.0
2018-Jun-18 02:31S 32°46' W 071°31'0 0.0
2018-Jun-18 02:01S 32°46' W 071°31'0 0.0
2018-Jun-18 01:30S 32°46' W 071°31'0 0.0
2018-Jun-18 01:01S 32°46' W 071°31'0 0.1
2018-Jun-18 00:30S 32°46' W 071°31'0 0.1
2018-Jun-18 00:00S 32°46' W 071°31'0 0.0
2018-Jun-17 22:58S 32°46' W 071°31'0 0.2
2018-Jun-17 22:30S 32°46' W 071°31'1 1.1
2018-Jun-17 21:56S 32°46' W 071°31'1 0.0
2018-Jun-16 16:35S 32°46' W 071°30'0 0.8
2018-Jun-16 16:29S 32°46' W 071°30'1 0.5
2018-Jun-16 15:10S 32°45' W 071°30'0 0.0
2018-Jun-16 14:46S 32°45' W 071°30'0 0.0
2018-Jun-16 14:22S 32°45' W 071°30'0 0.0
2018-Jun-16 13:49S 32°45' W 071°30'0 0.0
2018-Jun-16 13:22S 32°45' W 071°30'0 0.1
2018-Jun-16 12:55S 32°45' W 071°30'0 0.1
2018-Jun-16 12:13S 32°45' W 071°30'0 0.1
2018-Jun-16 11:58S 32°45' W 071°30'0 0.0
2018-Jun-16 08:55S 32°45' W 071°30'0 0.0
2018-Jun-16 08:25S 32°45' W 071°30'0 0.0
2018-Jun-16 07:34S 32°45' W 071°30'0 0.1
2018-Jun-16 07:28S 32°45' W 071°30'0 0.0
2018-Jun-16 06:58S 32°45' W 071°30'0 0.0
2018-Jun-16 06:28S 32°45' W 071°30'0 0.0
2018-Jun-16 05:40S 32°45' W 071°30'0 0.0
2018-Jun-15 21:52S 32°45' W 071°30'1 0.0
2018-Jun-14 20:00S 32°46' W 071°30'1 1.8
2018-Jun-14 19:17S 32°45' W 071°31'1 2.8
2018-Jun-14 18:46S 32°45' W 071°33'1 2.4
2018-Jun-14 18:26S 32°45' W 071°34'3 7.1
2018-Jun-14 18:00S 32°45' W 071°37'  

Dump ship's entire track history